• Join FlightAware (Why Join?)
  • Login
  • US Flag 
04:31AM EDT


 

Airport Tracker/Info


-or-


 

Live Flight TrackerFlight Track Log ✈ EJA831 ✈ 11-Jun-2013 ✈ KTEB - KLBE

Flight Track Log - Related Links

Times and Time Zones

All times are in EDT time to prevent confusion due to time zone crossing. See the EJA831 flight status page for this flight to view local times or setup timezone preferences in your user account.

Time Position Orientation Groundspeed Altitude Reporting Facility
EDT Latitude Longitude Course Direction KTS MPH feet Rate Location/Type
06:59PM 40.8314 -74.1006 220° Southwest 181 208 1,100  Level New York Center
07:00PM 40.8167 -74.1167 220° Southwest 180 207 1,500 1,080 Climbing New York TRACON
07:01PM 40.8000 -74.1833 252° West 204 235 2,800 2,040 Climbing New York TRACON
07:02PM 40.8000 -74.2667 270° West 238 274 5,900 3,660 Climbing New York TRACON
07:03PM 40.7833 -74.3667 258° West 246 283 10,200 3,300 Climbing New York TRACON
07:04PM 40.8500 -74.4333 323° Northwest 283 326 12,600 2,460 Climbing New York TRACON
07:04PM 40.8811 -74.4625 325° Northwest 305 351 13,900 2,400 Climbing New York Center
07:05PM 40.9267 -74.5364 309° West 311 358 16,200 1,560 Climbing New York Center
07:06PM 40.9267 -74.6600 270° West 319 367 17,000 360 Climbing New York Center
07:07PM 40.9250 -74.7725 269° West 332 382 17,000  Level New York Center
07:08PM 40.9228 -74.9014 269° West 332 382 17,000 1,080 Level New York Center
07:09PM 40.9206 -75.0192 269° West 324 373 19,300 2,220 Climbing New York Center
07:10PM 40.9186 -75.1344 269° West 324 373 21,500 2,220 Climbing New York Center
07:11PM 40.8997 -75.2458 257° West 334 384 23,700 2,160 Climbing New York Center
07:12PM 40.8744 -75.3594 254° West 334 384 25,900 1,680 Climbing New York Center
07:13PM 40.8469 -75.4783 253° West 339 390 27,100 1,020 Climbing New York Center
07:14PM 40.8164 -75.6133 253° West 344 396 28,000 420 Climbing New York Center
07:15PM 40.7836 -75.7508 253° West 371 427 28,000  Level New York Center
07:16PM 40.7506 -75.8936 253° West 395 455 28,000  Level New York Center
07:17PM 40.7150 -76.0361 252° West 405 466 28,000  Level New York Center
07:18PM 40.6794 -76.1783 252° West 410 472 28,000  Level New York Center
07:19PM 40.6728 -76.3203 267° West 396 456 28,000  Level New York Center
07:20PM 40.6956 -76.4561 283° West 381 438 28,000  Level New York Center
07:21PM 40.7167 -76.5811 283° West 376 433 28,000  Level New York Center
07:22PM 40.7317 -76.7003 279° West 352 405 28,000  Level New York Center
07:23PM 40.7506 -76.8197 282° West 345 397 28,000  Level New York Center
07:24PM 40.7672 -76.9389 281° West 334 384 28,000  Level New York Center
07:25PM 40.7842 -77.0528 281° West 334 384 28,000  Level New York Center
07:26PM 40.8008 -77.1697 281° West 329 379 28,000  Level New York Center
07:27PM 40.8156 -77.2833 280° West 324 373 28,000  Level New York Center
07:28PM 40.8342 -77.3978 282° West 318 366 28,000 -540 Level New York Center
07:30PM 40.8572 -77.5769 280° West 309 356 26,700 -1,020 Descending Cleveland Center
07:31PM 40.8728 -77.6942 280° West 323 372 25,400 -1,380 Descending Cleveland Center
07:32PM 40.8906 -77.8172 281° West 334 384 24,000 -1,380 Descending Cleveland Center
07:33PM 40.9058 -77.9319 280° West 334 384 22,700 -1,020 Descending Cleveland Center
07:34PM 40.8958 -78.0450 263° West 329 379 22,000 -360 Descending Cleveland Center
07:35PM 40.8458 -78.1511 238° Southwest 321 369 22,000 -420 Level Cleveland Center
07:36PM 40.7878 -78.2631 236° Southwest 335 386 21,200 -1,200 Descending Cleveland Center
07:37PM 40.7147 -78.3614 226° Southwest 369 425 19,600 -1,800 Descending Cleveland Center
07:38PM 40.6667 -78.4725 240° Southwest 369 425 17,600 -2,040 Descending Cleveland Center
07:39PM 40.6250 -78.5753 242° Southwest 352 405 15,900 -2,220 Descending Cleveland Center
07:39PM 40.5931 -78.6581 243° Southwest 346 398 14,200 -2,280 Descending Cleveland Center
07:40PM 40.5747 -78.6914 234° Southwest 352 405 13,300 -2,100 Descending Cleveland Center
07:40PM 40.5508 -78.7578 245° Southwest 324 373 12,100 -2,220 Descending Cleveland Center
07:41PM 40.5347 -78.7911 238° Southwest 331 381 11,100 -2,220 Descending Cleveland Center
07:41PM 40.5125 -78.8461 242° Southwest 285 328 9,900 -2,220 Descending Cleveland Center
07:42PM 40.4986 -78.8794 241° Southwest 303 349 8,900 -2,400 Descending Cleveland Center
07:42PM 40.4764 -78.9372 243° Southwest 258 297 7,500 -2,100 Descending Cleveland Center
07:43PM 40.4664 -78.9567 236° Southwest 273 314 6,800 -1,320 Descending Cleveland Center
07:43PM 40.4628 -79.0139 265° West 222 255 6,200 -1,200 Descending Cleveland Center
07:44PM 40.4611 -79.0386 265° West 239 275 5,600 -1,200 Descending Cleveland Center
07:44PM 40.4575 -79.0878 265° West 200 230 5,000 -1,140 Descending Cleveland Center
07:45PM 40.4558 -79.1069 263° West 214 246 4,500 -540 Descending Cleveland Center
07:45PM 40.4503 -79.1589 262° West 190 219 4,500  Level Cleveland Center
07:46PM 40.4197 -79.2169 235° Southwest 208 239 4,500 -120 Level Cleveland Center
07:47PM 40.4094 -79.2306 225° Southwest 193 222 4,400 -300 Descending Cleveland Center
07:47PM 40.3828 -79.2667 226° Southwest 187 215 4,200 -720 Descending Cleveland Center
07:48PM 40.3725 -79.2750 212° Southwest 193 222 3,700 -1,140 Descending Cleveland Center
07:48PM 40.3478 -79.3136 230° Southwest 181 208 3,100 -960 Descending Cleveland Center
07:49PM 40.3192 -79.3578 230° Southwest 181 208 2,200 -900 Descending Cleveland Center
07:51PM 40.2667 -79.4000 237° Southwest  Level FlightAware Approximate
07:58PM 40.2746 -79.4068 237° Southwest  Level Estimated
07:59PM 40.2746 -79.4068 237° Southwest  Level Estimated